Time;durP1;ratioP1;P1;durP2;ratioP2;P2;SDS_P1;SDS_P2;PMS_P1;PMS_P2;Temp;Humidity;BMP_temperature;BMP_pressure;BME280_temperature;BME280_humidity;BME280_pressure;Samples;Min_cycle;Max_cycle;Signal;HPM_P1;HPM_P2
2024/02/01 00:00:45;;;;;;;;;;;;;;;;;;5075319;28;19920;-70
2024/02/01 00:03:10;;;;;;;;;;;;;;;;;;5051003;28;19925;-70
2024/02/01 00:05:35;;;;;;;;;;;;;;;;;;5062878;28;19924;-70
2024/02/01 00:08:01;;;;;;;;;;;;;;;;;;5049259;28;19927;-70
2024/02/01 00:10:26;;;;;;;;;;;;;;;;;;5065889;28;19974;-70
2024/02/01 00:12:51;;;;;;;;;;;;;;;;;;5058347;28;19973;-70
2024/02/01 00:15:16;;;;;;;;;;;;;;;;;;5051249;28;19923;-70
2024/02/01 00:17:41;;;;;;;;;;;;;;;;;;5057159;28;19959;-70
2024/02/01 00:20:06;;;;;;;;;;;;;;;;;;5084416;28;20342;-70
2024/02/01 00:22:32;;;;;;;;;;;;;;;;;;5076912;28;19932;-70
2024/02/01 00:24:57;;;;;;;;;;;;;;;;;;5086991;28;20216;-70
2024/02/01 00:27:22;;;;;;;;;;;;;;;;;;5073959;28;20297;-70
2024/02/01 00:29:47;;;;;;;;;;;;;;;;;;5072658;28;19959;-70
2024/02/01 00:32:12;;;;;;;;;;;;;;;;;;5072036;28;19923;-70
2024/02/01 00:34:37;;;;;;;;;;;;;;;;;;5053113;28;20392;-70
2024/02/01 00:37:03;;;;;;;;;;;;;;;;;;5070922;28;20127;-70
2024/02/01 00:39:28;;;;;;;;;;;;;;;;;;5068309;28;19971;-70
2024/02/01 00:41:53;;;;;;;;;;;;;;;;;;5074103;28;19920;-70
2024/02/01 00:44:18;;;;;;;;;;;;;;;;;;5069812;28;19916;-70
2024/02/01 00:46:43;;;;;;;;;;;;;;;;;;5076264;28;19916;-70
2024/02/01 00:49:09;;;;;;;;;;;;;;;;;;5073458;28;19916;-70
2024/02/01 00:51:34;;;;;;;;;;;;;;;;;;5045570;28;19921;-70
2024/02/01 00:53:59;;;;;;;;;;;;;;;;;;5070986;28;20007;-70
2024/02/01 00:56:24;;;;;;;;;;;;;;;;;;5071414;28;19916;-70
2024/02/01 00:58:49;;;;;;;;;;;;;;;;;;5066209;28;20490;-70
2024/02/01 01:01:14;;;;;;;;;;;;;;;;;;5073936;28;20381;-70
2024/02/01 01:03:39;;;;;;;;;;;;;;;;;;5052925;28;19920;-70
2024/02/01 01:06:04;;;;;;;;;;;;;;;;;;5069539;28;19916;-71
2024/02/01 01:08:29;;;;;;;;;;;;;;;;;;5072386;28;19927;-70
2024/02/01 01:10:54;;;;;;;;;;;;;;;;;;5052701;28;20348;-70
2024/02/01 01:13:19;;;;;;;;;;;;;;;;;;5071844;28;19927;-70
2024/02/01 01:15:45;;;;;;;;;;;;;;;;;;5052364;28;19923;-70
2024/02/01 01:18:10;;;;;;;;;;;;;;;;;;5070254;28;19920;-70
2024/02/01 01:20:35;;;;;;;;;;;;;;;;;;5069808;28;20243;-70
2024/02/01 01:23:00;;;;;;;;;;;;;;;;;;5070199;28;20015;-70
2024/02/01 01:25:25;;;;;;;;;;;;;;;;;;5070471;28;20443;-70
2024/02/01 01:27:51;;;;;;;;;;;;;;;;;;5070261;28;19986;-70
2024/02/01 01:30:16;;;;;;;;;;;;;;;;;;5067524;28;19922;-70
2024/02/01 01:32:41;;;;;;;;;;;;;;;;;;5072480;28;20422;-70
2024/02/01 01:35:06;;;;;;;;;;;;;;;;;;5071524;28;19969;-70
2024/02/01 01:37:32;;;;;;;;;;;;;;;;;;5070347;28;19920;-70
2024/02/01 01:39:57;;;;;;;;;;;;;;;;;;5078091;28;19916;-70
2024/02/01 01:42:22;;;;;;;;;;;;;;;;;;5069094;28;19935;-70
2024/02/01 01:44:48;;;;;;;;;;;;;;;;;;5051204;28;19928;-70
2024/02/01 01:47:13;;;;;;;;;;;;;;;;;;5070229;28;19916;-70
2024/02/01 01:49:38;;;;;;;;;;;;;;;;;;5069255;28;19962;-70
2024/02/01 01:52:03;;;;;;;;;;;;;;;;;;5067978;28;19994;-70
2024/02/01 01:54:28;;;;;;;;;;;;;;;;;;5076303;28;20377;-70
2024/02/01 01:56:53;;;;;;;;;;;;;;;;;;5073255;28;20002;-70
2024/02/01 01:59:19;;;;;;;;;;;;;;;;;;5070699;28;19927;-70
2024/02/01 02:01:44;;;;;;;;;;;;;;;;;;5075428;28;19970;-70
2024/02/01 02:04:09;;;;;;;;;;;;;;;;;;5067858;28;19916;-70
2024/02/01 02:06:34;;;;;;;;;;;;;;;;;;5067527;28;19956;-70
2024/02/01 02:08:59;;;;;;;;;;;;;;;;;;5067427;28;19917;-70
2024/02/01 02:11:24;;;;;;;;;;;;;;;;;;5067741;28;19916;-70
2024/02/01 02:13:49;;;;;;;;;;;;;;;;;;5071061;28;19973;-70
2024/02/01 02:16:16;;;;;;;;;;;;;;;;;;5066892;28;19916;-70
2024/02/01 02:18:41;;;;;;;;;;;;;;;;;;5067487;28;20027;-70
2024/02/01 02:21:06;;;;;;;;;;;;;;;;;;5067375;28;20011;-70
2024/02/01 02:23:32;;;;;;;;;;;;;;;;;;5069056;28;19974;-70
2024/02/01 02:25:58;;;;;;;;;;;;;;;;;;5072881;28;19923;-70
2024/02/01 02:28:23;;;;;;;;;;;;;;;;;;5066490;28;20161;-70
2024/02/01 02:30:48;;;;;;;;;;;;;;;;;;5067290;28;19924;-70
2024/02/01 02:33:13;;;;;;;;;;;;;;;;;;5067536;28;19920;-70
2024/02/01 02:35:39;;;;;;;;;;;;;;;;;;5066890;28;19921;-70
2024/02/01 02:38:04;;;;;;;;;;;;;;;;;;5066493;28;19924;-70
2024/02/01 02:40:29;;;;;;;;;;;;;;;;;;5066745;28;19921;-70
2024/02/01 02:42:54;;;;;;;;;;;;;;;;;;5066841;28;19931;-70
2024/02/01 02:45:19;;;;;;;;;;;;;;;;;;5066099;28;20293;-70
2024/02/01 02:47:45;;;;;;;;;;;;;;;;;;5071597;28;20128;-70
2024/02/01 02:50:10;;;;;;;;;;;;;;;;;;5078966;28;19932;-70
2024/02/01 02:52:36;;;;;;;;;;;;;;;;;;5085485;28;19923;-70
2024/02/01 02:55:01;;;;;;;;;;;;;;;;;;5083321;28;19952;-70
2024/02/01 02:57:27;;;;;;;;;;;;;;;;;;5080862;28;19917;-70
2024/02/01 02:59:52;;;;;;;;;;;;;;;;;;5080683;28;20018;-70
2024/02/01 03:02:17;;;;;;;;;;;;;;;;;;5080029;28;19924;-70
2024/02/01 03:04:42;;;;;;;;;;;;;;;;;;5086842;28;19920;-70
2024/02/01 03:07:08;;;;;;;;;;;;;;;;;;5086484;28;20332;-70
2024/02/01 03:09:33;;;;;;;;;;;;;;;;;;5081271;28;19920;-70
2024/02/01 03:11:58;;;;;;;;;;;;;;;;;;5080530;28;19970;-70
2024/02/01 03:14:23;;;;;;;;;;;;;;;;;;5076408;28;19916;-70
2024/02/01 03:16:48;;;;;;;;;;;;;;;;;;5080724;28;20288;-70
2024/02/01 03:19:13;;;;;;;;;;;;;;;;;;5086566;28;20011;-70
2024/02/01 03:21:39;;;;;;;;;;;;;;;;;;5071917;28;19916;-70
2024/02/01 03:24:04;;;;;;;;;;;;;;;;;;5083160;28;19920;-70
2024/02/01 03:26:34;;;;;;;;;;;;;;;;;;5077173;28;19917;-70
2024/02/01 03:28:59;;;;;;;;;;;;;;;;;;5080165;28;19916;-70
2024/02/01 03:31:33;;;;;;;;;;;;;;;;;;5088725;28;19922;-70
2024/02/01 03:33:59;;;;;;;;;;;;;;;;;;5088588;28;19969;-70
2024/02/01 03:36:24;;;;;;;;;;;;;;;;;;5088037;28;19932;-70
2024/02/01 03:38:50;;;;;;;;;;;;;;;;;;5086186;28;19916;-70
2024/02/01 03:41:15;;;;;;;;;;;;;;;;;;5071432;28;19925;-70
2024/02/01 03:43:40;;;;;;;;;;;;;;;;;;5082073;28;19924;-70
2024/02/01 03:46:05;;;;;;;;;;;;;;;;;;5082492;28;19936;-70
2024/02/01 03:48:32;;;;;;;;;;;;;;;;;;5086294;28;19923;-70
2024/02/01 03:50:57;;;;;;;;;;;;;;;;;;5084076;28;19973;-70
2024/02/01 03:53:22;;;;;;;;;;;;;;;;;;5080218;28;20350;-70
2024/02/01 03:55:48;;;;;;;;;;;;;;;;;;5071095;28;19926;-70
2024/02/01 03:58:14;;;;;;;;;;;;;;;;;;5080157;28;19916;-70
2024/02/01 04:00:40;;;;;;;;;;;;;;;;;;5075040;28;19921;-70
2024/02/01 04:03:13;;;;;;;;;;;;;;;;;;5068029;28;20054;-70
2024/02/01 04:05:38;;;;;;;;;;;;;;;;;;5074200;28;19924;-70
2024/02/01 04:08:06;;;;;;;;;;;;;;;;;;5083972;28;19916;-70
2024/02/01 04:10:31;;;;;;;;;;;;;;;;;;5089826;28;19960;-70
2024/02/01 04:12:57;;;;;;;;;;;;;;;;;;5083321;28;19916;-70
2024/02/01 04:15:22;;;;;;;;;;;;;;;;;;5083015;28;20391;-70
2024/02/01 04:17:49;;;;;;;;;;;;;;;;;;5092120;28;20408;-70
2024/02/01 04:20:14;;;;;;;;;;;;;;;;;;5082961;28;20422;-70
2024/02/01 04:22:39;;;;;;;;;;;;;;;;;;5085833;28;20421;-70
2024/02/01 04:25:08;;;;;;;;;;;;;;;;;;5085831;28;19937;-71
2024/02/01 04:27:33;;;;;;;;;;;;;;;;;;5090151;28;19920;-71
2024/02/01 04:29:58;;;;;;;;;;;;;;;;;;5085469;28;20357;-71
2024/02/01 04:32:23;;;;;;;;;;;;;;;;;;5087765;28;20022;-70
2024/02/01 04:34:48;;;;;;;;;;;;;;;;;;5083337;28;19916;-71
2024/02/01 04:37:13;;;;;;;;;;;;;;;;;;5091301;28;20279;-71
2024/02/01 04:39:39;;;;;;;;;;;;;;;;;;5075438;28;20467;-71
2024/02/01 04:42:16;;;;;;;;;;;;;;;;;;5081459;28;20291;-71
2024/02/01 04:44:41;;;;;;;;;;;;;;;;;;5085243;28;19920;-71
2024/02/01 04:47:06;;;;;;;;;;;;;;;;;;5082262;28;19936;-71
2024/02/01 04:49:31;;;;;;;;;;;;;;;;;;5086323;28;19920;-70
2024/02/01 04:51:57;;;;;;;;;;;;;;;;;;5075084;28;20431;-70
2024/02/01 04:54:22;;;;;;;;;;;;;;;;;;5083459;28;20019;-70
2024/02/01 04:56:47;;;;;;;;;;;;;;;;;;5081851;28;20115;-70
2024/02/01 04:59:12;;;;;;;;;;;;;;;;;;5077439;28;19920;-70
2024/02/01 05:01:37;;;;;;;;;;;;;;;;;;5079153;28;19920;-70
2024/02/01 05:04:02;;;;;;;;;;;;;;;;;;5084620;28;20335;-69
2024/02/01 05:06:27;;;;;;;;;;;;;;;;;;5090010;28;20003;-69
2024/02/01 05:08:53;;;;;;;;;;;;;;;;;;5081496;28;19948;-69
2024/02/01 05:11:18;;;;;;;;;;;;;;;;;;5089343;28;20010;-69
2024/02/01 05:13:43;;;;;;;;;;;;;;;;;;5086176;28;19923;-69
2024/02/01 05:16:08;;;;;;;;;;;;;;;;;;5090882;28;19916;-70
2024/02/01 05:18:33;;;;;;;;;;;;;;;;;;5088950;28;19916;-69
2024/02/01 05:20:58;;;;;;;;;;;;;;;;;;5083157;28;20074;-69
2024/02/01 05:23:23;;;;;;;;;;;;;;;;;;5091001;28;19924;-69
2024/02/01 05:25:48;;;;;;;;;;;;;;;;;;5090611;28;19954;-69
2024/02/01 05:28:13;;;;;;;;;;;;;;;;;;5090565;28;19919;-69
2024/02/01 05:30:38;;;;;;;;;;;;;;;;;;5072869;28;20435;-69
2024/02/01 05:33:04;;;;;;;;;;;;;;;;;;5075606;28;19920;-69
2024/02/01 05:35:29;;;;;;;;;;;;;;;;;;5090164;28;19916;-69
2024/02/01 05:37:54;;;;;;;;;;;;;;;;;;5079065;28;19939;-69
2024/02/01 05:40:19;;;;;;;;;;;;;;;;;;5085313;28;19959;-69
2024/02/01 05:42:44;;;;;;;;;;;;;;;;;;5082355;28;19924;-69
2024/02/01 05:45:09;;;;;;;;;;;;;;;;;;5077182;28;19916;-69
2024/02/01 05:47:34;;;;;;;;;;;;;;;;;;5082140;28;19959;-69
2024/02/01 05:49:59;;;;;;;;;;;;;;;;;;5080537;28;20369;-69
2024/02/01 05:52:25;;;;;;;;;;;;;;;;;;5073780;28;19924;-69
2024/02/01 05:54:50;;;;;;;;;;;;;;;;;;5070006;28;19935;-69
2024/02/01 05:57:15;;;;;;;;;;;;;;;;;;5052320;28;19916;-69
2024/02/01 05:59:40;;;;;;;;;;;;;;;;;;5086851;28;19943;-69
2024/02/01 06:02:05;;;;;;;;;;;;;;;;;;5077501;28;19924;-69
2024/02/01 06:04:30;;;;;;;;;;;;;;;;;;5090408;28;19916;-69
2024/02/01 06:06:56;;;;;;;;;;;;;;;;;;5077517;28;19931;-69
2024/02/01 06:09:21;;;;;;;;;;;;;;;;;;5081834;28;19923;-69
2024/02/01 06:11:48;;;;;;;;;;;;;;;;;;5077667;28;19925;-69
2024/02/01 06:14:14;;;;;;;;;;;;;;;;;;5074364;28;19939;-69
2024/02/01 06:16:39;;;;;;;;;;;;;;;;;;5078133;28;20327;-69
2024/02/01 06:19:04;;;;;;;;;;;;;;;;;;5081709;28;20355;-69
2024/02/01 06:21:31;;;;;;;;;;;;;;;;;;5089331;28;20020;-69
2024/02/01 06:23:56;;;;;;;;;;;;;;;;;;5081533;28;19951;-69
2024/02/01 06:26:24;;;;;;;;;;;;;;;;;;5089068;28;19916;-69
2024/02/01 06:28:50;;;;;;;;;;;;;;;;;;5080393;28;19916;-69
2024/02/01 06:31:15;;;;;;;;;;;;;;;;;;5078338;28;20015;-69
2024/02/01 06:33:40;;;;;;;;;;;;;;;;;;5089319;28;19920;-68
2024/02/01 06:36:07;;;;;;;;;;;;;;;;;;5080120;28;19920;-70
2024/02/01 06:38:45;;;;;;;;;;;;;;;;;;5081314;28;19928;-69
2024/02/01 06:41:17;;;;;;;;;;;;;;;;;;5072021;28;19922;-69
2024/02/01 06:46:49;;;;;;;;;;;;;;;;;;5076384;28;19993;-69
2024/02/01 06:49:18;;;;;;;;;;;;;;;;;;5068532;28;19920;-69
2024/02/01 06:51:43;;;;;;;;;;;;;;;;;;5081004;28;19921;-69
2024/02/01 06:54:26;;;;;;;;;;;;;;;;;;5074477;28;19935;-69
2024/02/01 06:56:52;;;;;;;;;;;;;;;;;;5079473;28;20443;-69
2024/02/01 06:59:33;;;;;;;;;;;;;;;;;;5078895;28;20396;-69
2024/02/01 07:02:24;;;;;;;;;;;;;;;;;;5080183;28;19942;-69
2024/02/01 07:04:53;;;;;;;;;;;;;;;;;;5070128;28;19916;-69
2024/02/01 07:07:25;;;;;;;;;;;;;;;;;;5077283;28;19921;-69
2024/02/01 07:10:13;;;;;;;;;;;;;;;;;;5077015;28;20278;-69
2024/02/01 07:12:42;;;;;;;;;;;;;;;;;;5066444;28;19920;-69
2024/02/01 07:15:30;;;;;;;;;;;;;;;;;;5071249;28;19951;-69
2024/02/01 07:18:14;;;;;;;;;;;;;;;;;;5071474;28;19928;-69
2024/02/01 07:25:48;;;;;;;;;;;;;;;;;;5067581;28;19920;-69
2024/02/01 07:58:19;;;;;;;;;;;;;;;;;;5068598;28;20395;-69
2024/02/01 08:00:45;;;;;;;;;;;;;;;;;;5073404;28;19924;-69
2024/02/01 08:08:35;;;;;;;;;;;;;;;;;;5071068;28;19927;-68
2024/02/01 08:11:00;;;;;;;;;;;;;;;;;;5081141;28;19924;-69
2024/02/01 08:13:25;;;;;;;;;;;;;;;;;;5075135;28;20296;-68
2024/02/01 08:15:52;;;;;;;;;;;;;;;;;;5082336;28;20324;-68
2024/02/01 08:18:17;;;;;;;;;;;;;;;;;;5079828;28;19920;-69
2024/02/01 08:20:43;;;;;;;;;;;;;;;;;;5072726;28;20290;-69
2024/02/01 08:23:13;;;;;;;;;;;;;;;;;;5058029;28;20406;-68
2024/02/01 08:25:40;;;;;;;;;;;;;;;;;;5065549;28;20367;-69
2024/02/01 08:28:08;;;;;;;;;;;;;;;;;;5072311;28;19944;-70
2024/02/01 08:30:33;;;;;;;;;;;;;;;;;;5073652;28;19927;-69
2024/02/01 08:33:05;;;;;;;;;;;;;;;;;;5074678;28;19920;-69
2024/02/01 08:35:33;;;;;;;;;;;;;;;;;;5063456;28;19920;-69
2024/02/01 08:37:58;;;;;;;;;;;;;;;;;;5057506;28;19982;-69
2024/02/01 08:40:23;;;;;;;;;;;;;;;;;;5056805;28;20102;-69
2024/02/01 08:42:49;;;;;;;;;;;;;;;;;;5056579;28;19939;-68
2024/02/01 08:45:14;;;;;;;;;;;;;;;;;;5055568;28;19921;-68
2024/02/01 08:47:39;;;;;;;;;;;;;;;;;;5053715;28;19989;-69
2024/02/01 08:50:09;;;;;;;;;;;;;;;;;;5052628;28;19917;-69
2024/02/01 08:52:34;;;;;;;;;;;;;;;;;;5060483;28;20285;-69
2024/02/01 08:55:00;;;;;;;;;;;;;;;;;;5054376;28;19920;-68
2024/02/01 08:57:25;;;;;;;;;;;;;;;;;;5053006;28;20066;-69
2024/02/01 08:59:50;;;;;;;;;;;;;;;;;;5052905;28;20092;-68
2024/02/01 09:02:16;;;;;;;;;;;;;;;;;;5068347;28;20278;-69
2024/02/01 09:04:42;;;;;;;;;;;;;;;;;;5065493;28;19920;-69
2024/02/01 09:07:07;;;;;;;;;;;;;;;;;;5053030;28;19923;-69
2024/02/01 09:09:33;;;;;;;;;;;;;;;;;;5071289;28;20009;-69
2024/02/01 09:11:59;;;;;;;;;;;;;;;;;;5053089;28;20003;-69
2024/02/01 09:14:24;;;;;;;;;;;;;;;;;;5052329;28;19966;-69
2024/02/01 09:16:49;;;;;;;;;;;;;;;;;;5061441;28;19921;-69
2024/02/01 09:19:14;;;;;;;;;;;;;;;;;;5060931;28;20419;-69
2024/02/01 09:21:40;;;;;;;;;;;;;;;;;;5052746;28;19916;-69
2024/02/01 09:24:05;;;;;;;;;;;;;;;;;;5052300;28;19928;-69
2024/02/01 09:26:30;;;;;;;;;;;;;;;;;;5052885;28;19916;-69
2024/02/01 09:28:56;;;;;;;;;;;;;;;;;;5053455;28;20302;-69
2024/02/01 09:31:21;;;;;;;;;;;;;;;;;;5059537;28;19917;-69
2024/02/01 09:33:48;;;;;;;;;;;;;;;;;;5052483;28;20220;-69
2024/02/01 09:36:14;;;;;;;;;;;;;;;;;;5070387;28;19960;-69
2024/02/01 09:38:39;;;;;;;;;;;;;;;;;;5052713;28;19924;-69
2024/02/01 09:41:05;;;;;;;;;;;;;;;;;;5052473;28;19916;-69
2024/02/01 09:43:30;;;;;;;;;;;;;;;;;;5052327;28;19921;-69
2024/02/01 09:45:56;;;;;;;;;;;;;;;;;;5052399;28;20054;-69
2024/02/01 09:48:21;;;;;;;;;;;;;;;;;;5051951;28;20003;-69
2024/02/01 09:50:46;;;;;;;;;;;;;;;;;;5060825;28;20011;-68
2024/02/01 09:53:11;;;;;;;;;;;;;;;;;;5056878;28;19921;-69
2024/02/01 09:55:36;;;;;;;;;;;;;;;;;;5053004;28;19926;-69
2024/02/01 09:58:01;;;;;;;;;;;;;;;;;;5053266;28;20347;-70
2024/02/01 10:00:27;;;;;;;;;;;;;;;;;;5057847;28;19955;-69
2024/02/01 10:02:53;;;;;;;;;;;;;;;;;;5055997;28;20444;-69
2024/02/01 10:05:19;;;;;;;;;;;;;;;;;;5057795;28;19925;-69
2024/02/01 10:07:44;;;;;;;;;;;;;;;;;;5052773;28;19930;-69
2024/02/01 10:10:13;;;;;;;;;;;;;;;;;;5062743;28;19955;-69
2024/02/01 10:12:39;;;;;;;;;;;;;;;;;;5051959;28;20385;-69
2024/02/01 10:15:11;;;;;;;;;;;;;;;;;;5050930;28;20155;-69
2024/02/01 10:17:45;;;;;;;;;;;;;;;;;;5053476;28;20353;-68
2024/02/01 10:20:12;;;;;;;;;;;;;;;;;;5053671;28;19978;-69
2024/02/01 10:22:37;;;;;;;;;;;;;;;;;;5052940;28;19974;-69
2024/02/01 10:25:03;;;;;;;;;;;;;;;;;;5056620;28;20398;-68
2024/02/01 10:27:29;;;;;;;;;;;;;;;;;;5059024;28;19920;-69
2024/02/01 10:29:54;;;;;;;;;;;;;;;;;;5057722;28;19942;-68
2024/02/01 10:32:19;;;;;;;;;;;;;;;;;;5053907;28;19955;-69
2024/02/01 10:34:45;;;;;;;;;;;;;;;;;;5073416;28;19960;-68
2024/02/01 10:37:10;;;;;;;;;;;;;;;;;;5075526;28;20016;-68
2024/02/01 10:39:35;;;;;;;;;;;;;;;;;;5068648;28;19920;-69
2024/02/01 10:42:00;;;;;;;;;;;;;;;;;;5057129;28;19931;-69
2024/02/01 10:44:32;;;;;;;;;;;;;;;;;;5051283;28;19935;-69
2024/02/01 10:46:57;;;;;;;;;;;;;;;;;;5069137;28;20292;-69
2024/02/01 10:49:23;;;;;;;;;;;;;;;;;;5056940;28;19920;-68
2024/02/01 10:51:49;;;;;;;;;;;;;;;;;;5052863;28;19920;-68
2024/02/01 10:54:15;;;;;;;;;;;;;;;;;;5049005;28;19917;-69
2024/02/01 10:56:40;;;;;;;;;;;;;;;;;;5050430;28;19925;-69
2024/02/01 10:59:09;;;;;;;;;;;;;;;;;;5049442;28;20724;-68
2024/02/01 11:01:34;;;;;;;;;;;;;;;;;;5071162;28;19987;-68
2024/02/01 11:03:59;;;;;;;;;;;;;;;;;;5052650;28;20478;-69
2024/02/01 11:06:27;;;;;;;;;;;;;;;;;;5048607;28;19955;-69
2024/02/01 11:08:53;;;;;;;;;;;;;;;;;;5049701;28;20050;-69
2024/02/01 11:11:18;;;;;;;;;;;;;;;;;;5068831;28;20306;-69
2024/02/01 11:13:43;;;;;;;;;;;;;;;;;;5068696;28;19920;-68
2024/02/01 11:16:08;;;;;;;;;;;;;;;;;;5054855;28;20062;-69
2024/02/01 11:18:33;;;;;;;;;;;;;;;;;;5056221;28;19920;-68
2024/02/01 11:20:59;;;;;;;;;;;;;;;;;;5079462;28;19927;-69
2024/02/01 11:23:24;;;;;;;;;;;;;;;;;;5068797;28;19932;-69
2024/02/01 11:25:49;;;;;;;;;;;;;;;;;;5051354;28;19952;-68
2024/02/01 11:28:14;;;;;;;;;;;;;;;;;;5075913;28;19975;-69
2024/02/01 11:30:39;;;;;;;;;;;;;;;;;;5054548;28;20113;-68
2024/02/01 11:33:05;;;;;;;;;;;;;;;;;;5052756;28;19948;-68
2024/02/01 11:35:32;;;;;;;;;;;;;;;;;;5075109;28;19925;-68
2024/02/01 11:38:06;;;;;;;;;;;;;;;;;;5055188;28;19959;-68
2024/02/01 11:40:31;;;;;;;;;;;;;;;;;;5066251;28;20007;-69
2024/02/01 11:42:59;;;;;;;;;;;;;;;;;;5055531;28;20404;-68
2024/02/01 11:45:24;;;;;;;;;;;;;;;;;;5052284;28;20681;-68
2024/02/01 11:47:51;;;;;;;;;;;;;;;;;;5055539;28;19932;-68
2024/02/01 11:50:17;;;;;;;;;;;;;;;;;;5050435;28;19917;-68
2024/02/01 11:52:43;;;;;;;;;;;;;;;;;;5051011;28;19921;-68
2024/02/01 11:55:08;;;;;;;;;;;;;;;;;;5051427;28;20409;-68
2024/02/01 11:57:33;;;;;;;;;;;;;;;;;;5069215;28;20272;-68
2024/02/01 11:59:59;;;;;;;;;;;;;;;;;;5074370;28;20373;-68
2024/02/01 12:02:30;;;;;;;;;;;;;;;;;;5053624;28;19930;-69
2024/02/01 12:04:55;;;;;;;;;;;;;;;;;;5067803;28;20510;-66
2024/02/01 12:07:23;;;;;;;;;;;;;;;;;;5056604;28;19985;-68
2024/02/01 12:09:48;;;;;;;;;;;;;;;;;;5067391;28;19926;-69
2024/02/01 12:12:14;;;;;;;;;;;;;;;;;;5054010;28;19917;-68
2024/02/01 12:14:39;;;;;;;;;;;;;;;;;;5050167;28;19952;-68
2024/02/01 12:17:04;;;;;;;;;;;;;;;;;;5057700;28;19966;-69
2024/02/01 12:19:29;;;;;;;;;;;;;;;;;;5053626;28;19928;-68
2024/02/01 12:21:55;;;;;;;;;;;;;;;;;;5054711;28;19974;-69
2024/02/01 12:24:22;;;;;;;;;;;;;;;;;;5056495;28;19932;-69
2024/02/01 12:26:48;;;;;;;;;;;;;;;;;;5055302;28;19928;-68
2024/02/01 12:29:13;;;;;;;;;;;;;;;;;;5073799;28;19920;-66
2024/02/01 12:31:38;;;;;;;;;;;;;;;;;;5057668;28;20057;-68
2024/02/01 12:34:04;;;;;;;;;;;;;;;;;;5051258;28;20920;-69
2024/02/01 12:36:29;;;;;;;;;;;;;;;;;;5065522;28;19920;-68
2024/02/01 12:38:55;;;;;;;;;;;;;;;;;;5054796;28;20082;-68
2024/02/01 12:41:20;;;;;;;;;;;;;;;;;;5060853;28;19928;-68
2024/02/01 12:43:45;;;;;;;;;;;;;;;;;;5076558;28;19928;-68
2024/02/01 12:46:11;;;;;;;;;;;;;;;;;;5074974;28;19990;-67
2024/02/01 12:48:37;;;;;;;;;;;;;;;;;;5074256;28;19952;-68
2024/02/01 12:51:02;;;;;;;;;;;;;;;;;;5078060;28;20397;-66
2024/02/01 12:53:27;;;;;;;;;;;;;;;;;;5078612;28;19927;-69
2024/02/01 12:55:52;;;;;;;;;;;;;;;;;;5078539;28;19921;-69
2024/02/01 12:58:20;;;;;;;;;;;;;;;;;;5076867;28;19920;-69
2024/02/01 13:00:45;;;;;;;;;;;;;;;;;;5052564;28;19928;-66
2024/02/01 13:03:11;;;;;;;;;;;;;;;;;;5075275;28;19987;-66
2024/02/01 13:05:36;;;;;;;;;;;;;;;;;;5077354;28;19920;-67
2024/02/01 13:08:04;;;;;;;;;;;;;;;;;;5078953;28;20011;-69
2024/02/01 13:10:29;;;;;;;;;;;;;;;;;;5075967;28;19920;-67
2024/02/01 13:12:54;;;;;;;;;;;;;;;;;;5071174;28;20125;-69
2024/02/01 13:15:20;;;;;;;;;;;;;;;;;;5077500;28;19924;-69
2024/02/01 13:17:46;;;;;;;;;;;;;;;;;;5077913;28;20389;-66
2024/02/01 13:20:21;;;;;;;;;;;;;;;;;;5076744;28;19927;-67
2024/02/01 13:22:46;;;;;;;;;;;;;;;;;;5078805;28;19963;-67
2024/02/01 13:25:18;;;;;;;;;;;;;;;;;;5056015;28;19963;-67
2024/02/01 13:27:43;;;;;;;;;;;;;;;;;;5073997;28;19921;-67
2024/02/01 13:30:09;;;;;;;;;;;;;;;;;;5072240;28;19932;-68
2024/02/01 13:32:35;;;;;;;;;;;;;;;;;;5079149;28;19920;-67
2024/02/01 13:35:00;;;;;;;;;;;;;;;;;;5056589;28;19967;-67
2024/02/01 13:37:25;;;;;;;;;;;;;;;;;;5081600;28;19982;-67
2024/02/01 13:39:51;;;;;;;;;;;;;;;;;;5071432;28;20395;-67
2024/02/01 13:42:16;;;;;;;;;;;;;;;;;;5073196;28;19965;-67
2024/02/01 13:44:41;;;;;;;;;;;;;;;;;;5076763;28;19925;-67
2024/02/01 13:47:06;;;;;;;;;;;;;;;;;;5072881;28;20270;-67
2024/02/01 13:49:31;;;;;;;;;;;;;;;;;;5077776;28;19931;-67
2024/02/01 13:51:56;;;;;;;;;;;;;;;;;;5060822;28;19943;-67
2024/02/01 13:54:21;;;;;;;;;;;;;;;;;;5072883;28;20296;-67
2024/02/01 13:56:46;;;;;;;;;;;;;;;;;;5074829;28;19928;-68
2024/02/01 13:59:11;;;;;;;;;;;;;;;;;;5070728;28;19924;-68
2024/02/01 14:01:36;;;;;;;;;;;;;;;;;;5070812;28;19920;-68
2024/02/01 14:04:02;;;;;;;;;;;;;;;;;;5071821;28;19928;-68
2024/02/01 14:06:27;;;;;;;;;;;;;;;;;;5073722;28;19938;-68
2024/02/01 14:08:52;;;;;;;;;;;;;;;;;;5076514;28;20027;-68
2024/02/01 14:11:17;;;;;;;;;;;;;;;;;;5070558;28;20018;-68
2024/02/01 14:13:42;;;;;;;;;;;;;;;;;;5080693;28;19938;-68
2024/02/01 14:16:07;;;;;;;;;;;;;;;;;;5070939;28;19920;-68
2024/02/01 14:18:32;;;;;;;;;;;;;;;;;;5071887;28;19924;-68
2024/02/01 14:20:57;;;;;;;;;;;;;;;;;;5077668;28;19924;-68
2024/02/01 14:23:26;;;;;;;;;;;;;;;;;;5076032;28;19925;-68
2024/02/01 14:25:53;;;;;;;;;;;;;;;;;;5084139;28;19920;-67
2024/02/01 14:28:19;;;;;;;;;;;;;;;;;;5074910;28;19928;-68
2024/02/01 14:30:44;;;;;;;;;;;;;;;;;;5067177;28;19935;-67
2024/02/01 14:33:09;;;;;;;;;;;;;;;;;;5074275;28;19920;-68
2024/02/01 14:35:34;;;;;;;;;;;;;;;;;;5053975;28;19943;-68
2024/02/01 14:37:59;;;;;;;;;;;;;;;;;;5072725;28;20376;-68
2024/02/01 14:40:24;;;;;;;;;;;;;;;;;;5053617;28;20061;-68
2024/02/01 14:42:49;;;;;;;;;;;;;;;;;;5068770;28;19925;-68
2024/02/01 14:45:14;;;;;;;;;;;;;;;;;;5072538;28;19920;-67
2024/02/01 14:47:40;;;;;;;;;;;;;;;;;;5074333;28;19927;-68
2024/02/01 14:50:05;;;;;;;;;;;;;;;;;;5067542;28;19921;-68
2024/02/01 14:52:30;;;;;;;;;;;;;;;;;;5072398;28;19947;-68
2024/02/01 14:54:55;;;;;;;;;;;;;;;;;;5069005;28;19921;-68
2024/02/01 14:57:20;;;;;;;;;;;;;;;;;;5068301;28;19920;-68
2024/02/01 14:59:45;;;;;;;;;;;;;;;;;;5076490;28;19921;-68
2024/02/01 15:02:10;;;;;;;;;;;;;;;;;;5073864;28;19916;-67
2024/02/01 15:04:35;;;;;;;;;;;;;;;;;;5074795;28;20377;-68
2024/02/01 15:07:00;;;;;;;;;;;;;;;;;;5072513;28;19935;-67
2024/02/01 15:09:25;;;;;;;;;;;;;;;;;;5069638;28;19920;-68
2024/02/01 15:11:51;;;;;;;;;;;;;;;;;;5067443;28;19925;-67
2024/02/01 15:14:16;;;;;;;;;;;;;;;;;;5074518;28;19921;-68
2024/02/01 15:16:41;;;;;;;;;;;;;;;;;;5080256;28;19920;-68
2024/02/01 15:19:09;;;;;;;;;;;;;;;;;;5072042;28;19921;-68
2024/02/01 15:21:34;;;;;;;;;;;;;;;;;;5068648;28;19955;-68
2024/02/01 15:23:59;;;;;;;;;;;;;;;;;;5073099;28;19978;-68
2024/02/01 15:26:24;;;;;;;;;;;;;;;;;;5077466;28;19956;-68
2024/02/01 15:28:49;;;;;;;;;;;;;;;;;;5074469;28;20007;-68
2024/02/01 15:31:19;;;;;;;;;;;;;;;;;;5067236;28;20539;-68
2024/02/01 15:33:45;;;;;;;;;;;;;;;;;;5070963;28;19920;-68
2024/02/01 15:36:10;;;;;;;;;;;;;;;;;;5072799;28;19956;-69
2024/02/01 15:38:35;;;;;;;;;;;;;;;;;;5070357;28;19967;-68
2024/02/01 15:41:04;;;;;;;;;;;;;;;;;;5073724;28;19920;-68
2024/02/01 15:43:30;;;;;;;;;;;;;;;;;;5073931;28;19923;-67
2024/02/01 15:45:55;;;;;;;;;;;;;;;;;;5069804;28;19981;-67
2024/02/01 15:48:20;;;;;;;;;;;;;;;;;;5068197;28;20311;-68
2024/02/01 15:50:45;;;;;;;;;;;;;;;;;;5074074;28;20157;-68
2024/02/01 15:53:11;;;;;;;;;;;;;;;;;;5068650;28;19924;-67
2024/02/01 15:55:36;;;;;;;;;;;;;;;;;;5077972;28;19928;-67
2024/02/01 15:58:01;;;;;;;;;;;;;;;;;;5071929;28;19963;-68
2024/02/01 16:00:28;;;;;;;;;;;;;;;;;;5069244;28;19930;-68
2024/02/01 16:02:53;;;;;;;;;;;;;;;;;;5079448;28;20390;-68
2024/02/01 16:05:18;;;;;;;;;;;;;;;;;;5071561;28;20485;-68
2024/02/01 16:07:43;;;;;;;;;;;;;;;;;;5072896;28;19955;-67
2024/02/01 16:10:08;;;;;;;;;;;;;;;;;;5075728;28;19927;-68
2024/02/01 16:12:33;;;;;;;;;;;;;;;;;;5071608;28;19958;-67
2024/02/01 16:14:59;;;;;;;;;;;;;;;;;;5074028;28;20543;-67
2024/02/01 16:17:24;;;;;;;;;;;;;;;;;;5071899;28;19924;-67
2024/02/01 16:19:49;;;;;;;;;;;;;;;;;;5072176;28;19917;-67
2024/02/01 16:22:14;;;;;;;;;;;;;;;;;;5071274;28;19987;-67
2024/02/01 16:24:39;;;;;;;;;;;;;;;;;;5072092;28;19916;-67
2024/02/01 16:27:07;;;;;;;;;;;;;;;;;;5071677;28;19916;-67
2024/02/01 16:29:32;;;;;;;;;;;;;;;;;;5071302;28;19923;-67
2024/02/01 16:31:57;;;;;;;;;;;;;;;;;;5063415;28;19916;-67
2024/02/01 16:34:24;;;;;;;;;;;;;;;;;;5068188;28;19920;-67
2024/02/01 16:36:51;;;;;;;;;;;;;;;;;;5071862;28;19923;-67
2024/02/01 16:39:16;;;;;;;;;;;;;;;;;;5071968;28;20057;-67
2024/02/01 16:41:41;;;;;;;;;;;;;;;;;;5072220;28;19973;-67
2024/02/01 16:44:06;;;;;;;;;;;;;;;;;;5079290;28;20000;-68
2024/02/01 16:46:31;;;;;;;;;;;;;;;;;;5069747;28;19928;-68
2024/02/01 16:48:58;;;;;;;;;;;;;;;;;;5054542;28;19916;-67
2024/02/01 16:51:23;;;;;;;;;;;;;;;;;;5071264;28;19942;-67
2024/02/01 16:53:50;;;;;;;;;;;;;;;;;;5071404;28;19923;-67
2024/02/01 16:56:15;;;;;;;;;;;;;;;;;;5071738;28;19917;-68
2024/02/01 16:58:40;;;;;;;;;;;;;;;;;;5072399;28;19926;-67
2024/02/01 17:01:07;;;;;;;;;;;;;;;;;;5075808;28;19916;-67
2024/02/01 17:03:32;;;;;;;;;;;;;;;;;;5070933;28;20359;-68
2024/02/01 17:06:02;;;;;;;;;;;;;;;;;;5071202;28;20278;-68
2024/02/01 17:08:27;;;;;;;;;;;;;;;;;;5070065;28;19977;-67
2024/02/01 17:10:52;;;;;;;;;;;;;;;;;;5071306;28;19917;-67
2024/02/01 17:13:17;;;;;;;;;;;;;;;;;;5079916;28;20346;-67
2024/02/01 17:15:43;;;;;;;;;;;;;;;;;;5054865;28;19916;-67
2024/02/01 17:18:08;;;;;;;;;;;;;;;;;;5070351;28;19916;-67
2024/02/01 17:20:33;;;;;;;;;;;;;;;;;;5078993;28;19916;-67